createdAt,value
2024-01-10T00:29:12.832Z,85.1
2024-01-10T00:41:34.447Z,89.2
2024-01-10T01:12:27.768Z,96.2
2024-01-10T01:24:49.872Z,94
2024-01-10T01:27:18.159Z,94.8
2024-01-10T01:32:14.770Z,95
2024-01-10T01:47:04.412Z,92.8
2024-01-10T01:52:00.889Z,93.1
2024-01-10T01:54:29.183Z,92.3
2024-01-10T02:11:47.133Z,88.5
2024-01-10T02:14:15.455Z,89.2
2024-01-10T02:24:08.456Z,90.6
2024-01-10T02:26:36.756Z,88.6
2024-01-10T02:31:33.306Z,79.4
2024-01-10T02:34:01.627Z,79
2024-01-10T02:36:29.882Z,81.5
2024-01-10T02:43:54.693Z,90.3
2024-01-10T02:46:22.934Z,90.7
2024-01-10T02:51:19.512Z,92.7
2024-01-10T02:53:47.790Z,92.3
2024-01-10T03:03:40.982Z,90.9
2024-01-10T03:06:09.176Z,90.6
2024-01-10T03:11:05.775Z,91.4
2024-01-10T03:13:33.984Z,90.9
2024-01-10T03:23:27.147Z,92.5
2024-01-10T03:25:55.389Z,92.9
2024-01-10T03:30:51.926Z,92.9
2024-01-10T03:43:13.287Z,93.4
2024-01-10T03:45:41.533Z,93.5
2024-01-10T03:50:38.104Z,93.9
2024-01-10T03:53:06.498Z,93.3
2024-01-10T04:02:59.524Z,93.4
2024-01-10T04:05:27.974Z,92.7
2024-01-10T04:10:24.313Z,91.8
2024-01-10T04:12:52.579Z,92.1
2024-01-10T04:22:45.685Z,91.5
2024-01-10T04:30:10.560Z,92.9
2024-01-10T04:32:38.904Z,93.6
2024-01-10T04:42:31.875Z,97.4
2024-01-10T04:45:00.179Z,98.5
2024-01-10T04:49:56.750Z,99.2
2024-01-10T05:02:18.157Z,100
2024-01-10T05:04:46.469Z,100
2024-01-10T05:09:42.881Z,100
2024-01-10T05:12:11.180Z,100
2024-01-10T05:22:04.728Z,100
2024-01-10T05:24:32.588Z,100
2024-01-10T05:29:29.373Z,100
2024-01-10T05:31:57.456Z,100
2024-01-10T05:41:50.469Z,98.7
2024-01-10T05:44:18.863Z,98.9
2024-01-10T05:46:45.586Z,98.7
2024-01-10T05:46:52.273Z,97.5
2024-01-10T05:47:12.094Z,98.6
2024-01-10T05:47:50.486Z,96.9
2024-01-10T05:47:56.700Z,87.7
2024-01-10T05:48:02.488Z,87.4
2024-01-10T05:48:43.942Z,87.2
2024-01-10T05:49:03.273Z,85.6
2024-01-10T05:49:10.639Z,85.3
2024-01-10T05:49:17.151Z,84.4
2024-01-10T05:49:30.219Z,96
2024-01-10T05:50:20.818Z,95.8
2024-01-10T05:51:20.689Z,95.3
2024-01-10T05:52:20.632Z,95
2024-01-10T05:53:21.377Z,94.5
2024-01-10T05:54:20.628Z,94
2024-01-10T05:55:20.652Z,93.5
2024-01-10T05:56:20.792Z,92.2
2024-01-10T05:57:21.318Z,90.6
2024-01-10T05:59:20.691Z,88.9
2024-01-10T06:00:20.638Z,88.8
2024-01-10T06:01:20.699Z,88.2
2024-01-10T06:02:20.663Z,87.8
2024-01-10T06:03:20.668Z,87.8
2024-01-10T06:04:21.270Z,87.8
2024-01-10T06:05:20.656Z,88
2024-01-10T06:06:20.659Z,88.4
2024-01-10T06:07:20.639Z,89
2024-01-10T06:10:20.622Z,90.7
2024-01-10T06:11:20.779Z,91.2
2024-01-10T06:12:20.633Z,91.9
2024-01-10T06:13:29.045Z,92.1
2024-01-10T06:14:27.873Z,92
2024-01-10T06:33:19.750Z,97.2
2024-01-10T06:34:33.909Z,97.5
2024-01-10T06:35:27.992Z,97.4
2024-01-10T06:36:27.676Z,97.8
2024-01-10T06:38:21.236Z,98.1
2024-01-10T06:40:21.312Z,97.6
2024-01-10T06:41:21.705Z,97.9
2024-01-10T06:42:21.124Z,98.6
2024-01-10T06:43:20.880Z,98.6
2024-01-10T06:44:20.735Z,98.9
2024-01-10T06:45:20.624Z,99
2024-01-10T06:46:21.460Z,99
2024-01-10T06:47:21.118Z,99.2
2024-01-10T06:48:20.625Z,99.2
2024-01-10T06:49:20.638Z,98.8
2024-01-10T06:50:20.866Z,99.2
2024-01-10T06:51:21.324Z,98.9
2024-01-10T06:52:20.618Z,98.9
2024-01-10T06:53:20.681Z,98.2
2024-01-10T06:54:21.165Z,96.3
2024-01-10T06:55:21.200Z,95.7
2024-01-10T06:56:20.658Z,95.5
2024-01-10T06:57:20.626Z,94.7
2024-01-10T06:58:21.205Z,94.7
2024-01-10T06:59:20.692Z,94.7
2024-01-10T07:00:21.232Z,94.4
2024-01-10T07:01:20.666Z,94.3
2024-01-10T07:02:21.205Z,94.2
2024-01-10T07:03:21.354Z,93.5
2024-01-10T07:04:23.437Z,89
2024-01-10T07:05:20.703Z,89.2
2024-01-10T07:06:21.257Z,90.2
2024-01-10T07:07:20.621Z,90
2024-01-10T07:08:20.727Z,91.3
2024-01-10T07:09:20.947Z,92
2024-01-10T07:10:21.459Z,91.8
2024-01-10T07:11:21.444Z,89.6
2024-01-10T07:12:21.599Z,89.3
2024-01-10T07:13:20.618Z,88.3
2024-01-10T07:14:20.920Z,90.2
2024-01-10T07:15:21.075Z,88.4
2024-01-10T07:16:21.201Z,84.8
2024-01-10T07:17:20.675Z,83.2
2024-01-10T07:18:19.728Z,81.4
2024-01-10T07:19:21.283Z,84.7
2024-01-10T07:20:21.311Z,82.8
2024-01-10T07:21:21.441Z,80.2
2024-01-10T07:22:20.666Z,81.4
2024-01-10T07:23:20.663Z,81.8
2024-01-10T07:25:20.646Z,81.5
2024-01-10T07:26:21.300Z,80.5
2024-01-10T07:27:21.116Z,79.5
2024-01-10T07:28:21.118Z,82.1
2024-01-10T07:30:20.675Z,82.3
2024-01-10T07:31:20.887Z,83.6
2024-01-10T07:32:21.345Z,85
2024-01-10T07:33:21.727Z,85.9
2024-01-10T07:35:21.136Z,85.6
2024-01-10T07:36:21.033Z,86.4
2024-01-10T07:37:20.624Z,84.9
2024-01-10T07:38:20.824Z,83.8
2024-01-10T07:39:20.613Z,83
2024-01-10T07:40:20.611Z,83.5
2024-01-10T07:41:21.183Z,82.3
2024-01-10T07:42:20.751Z,84.1
2024-01-10T07:43:20.654Z,85.5
2024-01-10T07:44:19.781Z,86.4
2024-01-10T07:45:20.712Z,87.6
2024-01-10T07:46:20.891Z,88.2
2024-01-10T07:47:21.451Z,88.1
2024-01-10T07:48:20.473Z,88
2024-01-10T07:49:21.338Z,88.2
2024-01-10T07:50:20.735Z,88.7
2024-01-10T07:52:24.659Z,90
2024-01-10T07:53:20.652Z,90.5
2024-01-10T07:54:20.600Z,90.5
2024-01-10T07:55:20.601Z,90.8
2024-01-10T07:56:21.396Z,91.1
2024-01-10T07:57:20.601Z,90.8
2024-01-10T07:58:20.635Z,91.3
2024-01-10T07:59:20.916Z,91.1
2024-01-10T08:00:21.094Z,91.2
2024-01-10T08:01:20.615Z,91.4
2024-01-10T08:02:21.326Z,90.9
2024-01-10T08:03:21.116Z,90.3
2024-01-10T08:04:20.615Z,90.9
2024-01-10T08:05:21.359Z,90.3
2024-01-10T08:06:27.106Z,90.2
2024-01-10T08:07:20.814Z,90.8
2024-01-10T08:08:20.652Z,90.9
2024-01-10T08:09:20.589Z,91.2
2024-01-10T08:10:20.591Z,91
2024-01-10T08:11:20.635Z,90.9
2024-01-10T08:12:21.087Z,91.1
2024-01-10T08:13:20.624Z,90.9
2024-01-10T08:14:21.303Z,91.5
2024-01-10T08:15:20.592Z,92.2
2024-01-10T08:16:20.757Z,92.5
2024-01-10T08:17:20.597Z,92.5
2024-01-10T08:18:20.055Z,92.3
2024-01-10T08:19:21.521Z,92.5
2024-01-10T08:20:21.086Z,92.6
2024-01-10T08:21:21.248Z,92.6
2024-01-10T08:22:21.320Z,92.6
2024-01-10T08:23:20.674Z,92.4
2024-01-10T08:24:20.843Z,92.9
2024-01-10T08:25:20.594Z,92.6
2024-01-10T08:26:20.640Z,92.1
2024-01-10T08:27:20.613Z,92.3
2024-01-10T08:28:20.594Z,92.2
2024-01-10T08:29:20.732Z,92.2
2024-01-10T08:30:20.633Z,92.4
2024-01-10T08:31:21.572Z,91.6
2024-01-10T08:32:20.649Z,91.7
2024-01-10T08:33:20.665Z,91.8
2024-01-10T08:35:20.656Z,91.9
2024-01-10T08:36:20.590Z,92.2
2024-01-10T08:37:20.598Z,92.3
2024-01-10T08:38:21.162Z,93.2
2024-01-10T08:39:20.599Z,94.6
2024-01-10T08:40:21.085Z,95.6
2024-01-10T08:41:20.780Z,96.2
2024-01-10T08:42:21.431Z,96.8
2024-01-10T08:43:20.999Z,96.8
2024-01-10T08:44:21.228Z,97.2
2024-01-10T08:46:20.588Z,97.2
2024-01-10T08:47:23.427Z,96.9
2024-01-10T08:48:20.047Z,97
2024-01-10T08:49:20.917Z,95.8
2024-01-10T08:50:20.651Z,95.8
2024-01-10T08:51:20.029Z,95.8
2024-01-10T08:52:20.591Z,95.6
2024-01-10T08:53:20.615Z,95.6
2024-01-10T08:54:20.581Z,95.5
2024-01-10T08:55:20.588Z,95.5
2024-01-10T08:56:20.594Z,95.2
2024-01-10T08:57:20.644Z,93
2024-01-10T08:58:20.592Z,93.7
2024-01-10T08:59:20.634Z,93.2
2024-01-10T09:00:21.243Z,89.6
2024-01-10T09:01:21.268Z,87.3
2024-01-10T09:02:20.702Z,85.8
2024-01-10T09:03:21.395Z,83.4
2024-01-10T09:04:20.757Z,80.9
2024-01-10T09:05:20.631Z,78
2024-01-10T09:06:20.624Z,76.2
2024-01-10T09:07:20.767Z,75.3
2024-01-10T09:08:20.642Z,74.1
2024-01-10T09:09:20.591Z,72.1
2024-01-10T09:10:20.614Z,71.2
2024-01-10T09:11:21.154Z,71.2
2024-01-10T09:12:20.822Z,70.4
2024-01-10T09:13:20.590Z,69.6
2024-01-10T09:14:21.550Z,69.9
2024-01-10T09:15:20.591Z,70.2
2024-01-10T09:16:20.705Z,70.2
2024-01-10T09:17:20.675Z,72.2
2024-01-10T09:18:19.821Z,72.9
2024-01-10T09:19:20.640Z,75.1
2024-01-10T09:20:20.672Z,77.6
2024-01-10T09:21:20.589Z,80.4
2024-01-10T09:22:20.573Z,82.8
2024-01-10T09:23:20.618Z,84.8
2024-01-10T09:24:28.514Z,85.3
2024-01-10T09:25:21.245Z,86.6
2024-01-10T09:26:20.807Z,87.1
2024-01-10T09:27:20.570Z,87.6
2024-01-10T09:28:20.721Z,88.1
2024-01-10T09:29:20.933Z,88.3
2024-01-10T09:30:20.620Z,88.5
2024-01-10T09:31:21.406Z,89
2024-01-10T09:32:20.754Z,88.8
2024-01-10T09:33:20.886Z,88.6
2024-01-10T09:34:21.749Z,89
2024-01-10T09:35:20.749Z,89.4
2024-01-10T09:36:20.576Z,89.3
2024-01-10T09:37:20.735Z,89.5
2024-01-10T09:38:20.640Z,89.9
2024-01-10T09:39:20.596Z,89.9
2024-01-10T09:40:20.679Z,89.5
2024-01-10T09:41:20.606Z,90
2024-01-10T09:42:20.572Z,90.3
2024-01-10T09:43:20.589Z,90.4
2024-01-10T09:44:21.361Z,90.8
2024-01-10T09:45:20.797Z,90.7
2024-01-10T09:46:21.080Z,91
2024-01-10T09:47:15.217Z,91.1
2024-01-10T09:48:19.696Z,91.3
2024-01-10T09:49:21.034Z,91.5
2024-01-10T09:50:20.865Z,91.6
2024-01-10T09:51:21.598Z,91.6
2024-01-10T09:52:20.883Z,91.8
2024-01-10T09:53:20.799Z,91.8
2024-01-10T09:54:20.684Z,92
2024-01-10T09:55:23.655Z,91.8
2024-01-10T09:56:21.180Z,91.8
2024-01-10T09:57:20.577Z,91.7
2024-01-10T09:58:21.230Z,91.3
2024-01-10T09:59:21.202Z,90.9
2024-01-10T10:00:21.246Z,90.6
2024-01-10T10:01:21.067Z,90.1
2024-01-10T10:02:20.656Z,90.2
2024-01-10T10:03:21.024Z,89.9
2024-01-10T10:04:21.541Z,89.8
2024-01-10T10:05:20.835Z,89.7
2024-01-10T10:06:20.817Z,89.6
2024-01-10T10:07:20.634Z,89.2
2024-01-10T10:08:20.611Z,88.5
2024-01-10T10:09:21.029Z,87.7
2024-01-10T10:10:21.535Z,87.1
2024-01-10T10:11:21.537Z,86.7
2024-01-10T10:12:20.560Z,86.2
2024-01-10T10:13:21.442Z,85.2
2024-01-10T10:14:21.368Z,83.7
2024-01-10T10:15:20.566Z,83.5
2024-01-10T10:16:20.749Z,83.3
2024-01-10T10:17:20.719Z,83.6
2024-01-10T10:18:20.067Z,83.3
2024-01-10T10:19:26.825Z,82
2024-01-10T10:20:20.900Z,81.6
2024-01-10T10:21:21.229Z,81.4
2024-01-10T10:22:20.588Z,80.9
2024-01-10T10:24:22.704Z,80.3
2024-01-10T10:25:21.456Z,80.8
2024-01-10T10:26:21.872Z,80
2024-01-10T10:27:20.744Z,79.7
2024-01-10T10:28:25.561Z,79.7
2024-01-10T10:29:21.213Z,78.8
2024-01-10T10:30:21.409Z,78.6
2024-01-10T10:31:20.975Z,78.7
2024-01-10T10:32:20.600Z,79.1
2024-01-10T10:33:21.372Z,79.9
2024-01-10T10:34:20.951Z,79.8
2024-01-10T10:35:29.961Z,79.4
2024-01-10T10:36:20.611Z,78.9
2024-01-10T10:37:20.629Z,77.1
2024-01-10T10:38:20.603Z,76.8
2024-01-10T10:39:20.989Z,77.2
2024-01-10T10:40:20.569Z,76.9
2024-01-10T10:42:22.961Z,76.3
2024-01-10T10:43:20.568Z,77.1
2024-01-10T10:44:21.479Z,77.3
2024-01-10T10:45:20.552Z,77.8
2024-01-10T10:46:20.566Z,78.9
2024-01-10T10:47:20.594Z,79.4
2024-01-10T10:48:19.768Z,79.8
2024-01-10T10:49:20.991Z,79.9
2024-01-10T10:50:21.301Z,80.1
2024-01-10T10:51:20.573Z,80.2
2024-01-10T10:52:20.564Z,80.1
2024-01-10T10:53:20.667Z,80.4
2024-01-10T10:54:21.065Z,81.4
2024-01-10T10:55:20.825Z,81.9
2024-01-10T10:56:21.339Z,82.3
2024-01-10T10:57:20.551Z,82.4
2024-01-10T10:58:24.152Z,81.9
2024-01-10T10:59:21.117Z,81.3
2024-01-10T11:00:21.260Z,80.9
2024-01-10T11:01:20.895Z,79.4
2024-01-10T11:02:20.580Z,79.9
2024-01-10T11:03:21.348Z,80.2
2024-01-10T11:04:21.140Z,80.3
2024-01-10T11:05:21.288Z,80.9
2024-01-10T11:06:20.655Z,80.2
2024-01-10T11:07:20.982Z,79.6
2024-01-10T11:08:20.664Z,79.7
2024-01-10T11:09:21.443Z,79.5
2024-01-10T11:10:20.812Z,80
2024-01-10T11:11:20.572Z,80
2024-01-10T11:12:20.550Z,79.2
2024-01-10T11:13:20.571Z,79.1
2024-01-10T11:14:24.087Z,79.4
2024-01-10T11:15:20.584Z,79.1
2024-01-10T11:16:21.045Z,78.3
2024-01-10T11:17:21.161Z,78.4
2024-01-10T11:18:20.342Z,77.8
2024-01-10T11:19:21.240Z,77.4
2024-01-10T11:20:21.158Z,77.1
2024-01-10T11:21:19.680Z,76.3
2024-01-10T11:22:21.124Z,76.1
2024-01-10T11:23:20.869Z,74.7
2024-01-10T11:24:21.242Z,74.1
2024-01-10T11:25:20.751Z,73.6
2024-01-10T11:26:20.651Z,72.5
2024-01-10T11:27:20.548Z,73.2
2024-01-10T11:28:20.550Z,73.8
2024-01-10T11:29:21.398Z,73.7
2024-01-10T11:30:24.988Z,73.8
2024-01-10T11:31:21.043Z,73.4
2024-01-10T11:32:21.209Z,70.6
2024-01-10T11:33:20.599Z,70.5
2024-01-10T11:34:21.474Z,67.5
2024-01-10T11:35:20.789Z,66.2
2024-01-10T11:36:20.568Z,66.7
2024-01-10T11:37:20.540Z,67.7
2024-01-10T11:38:21.365Z,67.6
2024-01-10T11:39:20.572Z,65.1
2024-01-10T11:40:20.559Z,65.4
2024-01-10T11:41:21.130Z,64.8
2024-01-10T11:42:20.543Z,61.5
2024-01-10T11:43:20.550Z,62
2024-01-10T11:44:20.785Z,59
2024-01-10T11:45:20.547Z,60.2
2024-01-10T11:46:22.127Z,59.5
2024-01-10T11:47:20.659Z,59.1
2024-01-10T11:48:20.379Z,59.2
2024-01-10T11:49:20.787Z,59.4
2024-01-10T11:50:20.720Z,56.6
2024-01-10T11:51:20.533Z,57.6
2024-01-10T11:52:20.828Z,55.9
2024-01-10T11:53:20.696Z,54.7
2024-01-10T11:54:20.576Z,54.2
2024-01-10T11:55:20.850Z,54
2024-01-10T11:56:26.324Z,53
2024-01-10T11:57:20.558Z,53.5
2024-01-10T11:58:20.590Z,54
2024-01-10T11:59:20.623Z,54.1
2024-01-10T12:00:20.941Z,53.6
2024-01-10T12:01:20.530Z,53.5
2024-01-10T12:02:20.721Z,53.5
2024-01-10T12:03:21.066Z,53.7
2024-01-10T12:04:26.823Z,54
2024-01-10T12:05:20.686Z,53.5
2024-01-10T12:06:20.696Z,53.5
2024-01-10T12:07:21.621Z,52.5
2024-01-10T12:08:20.565Z,52.2
2024-01-10T12:09:20.932Z,51.7
2024-01-10T12:10:21.087Z,52.1
2024-01-10T12:11:20.626Z,52.3
2024-01-10T12:12:20.815Z,52
2024-01-10T12:13:20.529Z,52.6
2024-01-10T12:14:20.560Z,51.5
2024-01-10T12:15:20.598Z,51.9
2024-01-10T12:16:20.543Z,52.4
2024-01-10T12:17:20.866Z,52.9
2024-01-10T12:18:19.765Z,53.6
2024-01-10T12:19:20.580Z,52.8
2024-01-10T12:20:20.553Z,51.1
2024-01-10T12:21:20.528Z,52.5
2024-01-10T12:22:21.068Z,51.8
2024-01-10T12:23:21.564Z,52.1
2024-01-10T12:24:21.013Z,51.5
2024-01-10T12:26:20.747Z,52.7
2024-01-10T12:27:21.458Z,52.9
2024-01-10T12:28:20.633Z,50.6
2024-01-10T12:29:21.472Z,51.3
2024-01-10T12:30:20.923Z,51.7
2024-01-10T12:31:20.559Z,52.6
2024-01-10T12:32:20.574Z,52.6
2024-01-10T12:33:20.609Z,52.4
2024-01-10T12:34:20.586Z,50.5
2024-01-10T12:35:20.651Z,50.3
2024-01-10T12:36:20.715Z,51.6
2024-01-10T12:37:21.264Z,52.1
2024-01-10T12:38:20.678Z,51.5
2024-01-10T12:39:20.730Z,50.6
2024-01-10T12:40:20.792Z,49.9
2024-01-10T12:41:20.789Z,50.3
2024-01-10T12:42:20.867Z,50.7
2024-01-10T12:43:21.069Z,51
2024-01-10T12:44:20.876Z,51.2
2024-01-10T12:45:20.633Z,51.1
2024-01-10T12:46:21.040Z,51.2
2024-01-10T12:47:20.597Z,51.2
2024-01-10T12:48:20.093Z,50.6
2024-01-10T12:49:21.221Z,51.2
2024-01-10T12:50:20.580Z,51.9
2024-01-10T12:51:20.544Z,51.2
2024-01-10T12:52:22.861Z,50.3
2024-01-10T12:53:21.293Z,50.8
2024-01-10T12:55:20.522Z,51.3
2024-01-10T12:56:20.550Z,50.8
2024-01-10T12:57:20.522Z,51.2
2024-01-10T12:58:20.988Z,51.2
2024-01-10T12:59:21.422Z,50.6
2024-01-10T13:00:20.547Z,50.5
2024-01-10T13:01:20.593Z,50.9
2024-01-10T13:02:20.622Z,51.1
2024-01-10T13:03:20.524Z,50.5
2024-01-10T13:04:20.677Z,50.7
2024-01-10T13:05:20.573Z,50.6
2024-01-10T13:06:20.540Z,49.9
2024-01-10T13:07:20.569Z,50.7
2024-01-10T13:08:21.632Z,50.5
2024-01-10T13:09:20.907Z,49.5
2024-01-10T13:10:21.159Z,50.1
2024-01-10T13:11:20.612Z,50.5
2024-01-10T13:12:20.741Z,49.9
2024-01-10T13:13:20.540Z,49.9
2024-01-10T13:14:21.009Z,50
2024-01-10T13:15:20.587Z,49.9
2024-01-10T13:16:20.943Z,49.3
2024-01-10T13:17:21.054Z,49.2
2024-01-10T13:18:19.884Z,49.2
2024-01-10T13:19:20.546Z,49.3
2024-01-10T13:20:21.222Z,49
2024-01-10T13:21:20.536Z,48.9
2024-01-10T13:22:20.543Z,49.5
2024-01-10T13:23:21.380Z,50.2
2024-01-10T13:24:20.535Z,50.2
2024-01-10T13:25:20.715Z,49.7
2024-01-10T13:26:20.557Z,49.4
2024-01-10T13:27:22.022Z,49.9
2024-01-10T13:28:20.805Z,50.1
2024-01-10T13:29:20.980Z,50.1
2024-01-10T13:30:20.583Z,50.1
2024-01-10T13:31:20.531Z,49.3
2024-01-10T13:32:20.587Z,48.8
2024-01-10T13:34:20.912Z,48.6
2024-01-10T13:35:21.209Z,49.8
2024-01-10T13:36:20.546Z,48.6
2024-01-10T13:37:20.521Z,48.6
2024-01-10T13:38:21.057Z,48.9
2024-01-10T13:39:20.540Z,48.9
2024-01-10T13:40:21.414Z,48.9
2024-01-10T13:41:20.585Z,49.3
2024-01-10T13:42:20.523Z,50.1
2024-01-10T13:43:20.524Z,49.6
2024-01-10T13:45:20.520Z,48.8
2024-01-10T13:46:20.554Z,49.6
2024-01-10T13:47:21.073Z,48.6
2024-01-10T13:48:19.735Z,49
2024-01-10T13:49:21.194Z,49.3
2024-01-10T13:50:20.714Z,48.9
2024-01-10T13:51:20.329Z,49.7
2024-01-10T13:52:20.526Z,49.8
2024-01-10T13:53:20.537Z,49.9
2024-01-10T13:54:20.548Z,49.9
2024-01-10T13:55:21.293Z,49.8
2024-01-10T13:56:21.055Z,49.1
2024-01-10T13:57:20.927Z,49.6
2024-01-10T13:58:20.927Z,48.8
2024-01-10T13:59:20.863Z,49.6
2024-01-10T14:00:20.543Z,49.8
2024-01-10T14:01:21.109Z,49.4
2024-01-10T14:02:20.547Z,49.3
2024-01-10T14:03:20.655Z,49.5
2024-01-10T14:04:20.699Z,50.1
2024-01-10T14:05:20.803Z,49.2
2024-01-10T14:06:20.633Z,49.9
2024-01-10T14:07:20.575Z,50.2
2024-01-10T14:08:20.586Z,50.1
2024-01-10T14:09:20.535Z,49.9
2024-01-10T14:10:21.364Z,50.3
2024-01-10T14:11:20.570Z,50.5
2024-01-10T14:12:21.015Z,49.3
2024-01-10T14:13:20.688Z,50.4
2024-01-10T14:14:25.161Z,50.1
2024-01-10T14:15:21.079Z,50.1
2024-01-10T14:16:21.021Z,50.5
2024-01-10T14:17:20.658Z,50
2024-01-10T14:18:20.183Z,49.5
2024-01-10T14:19:20.863Z,49.6
2024-01-10T14:20:21.106Z,49.4
2024-01-10T14:21:21.044Z,49.7
2024-01-10T14:22:28.992Z,49.4
2024-01-10T14:23:20.720Z,49.8
2024-01-10T14:24:21.163Z,48.8
2024-01-10T14:25:20.519Z,49.4
2024-01-10T14:26:21.180Z,49.7
2024-01-10T14:27:20.714Z,49.6
2024-01-10T14:28:20.517Z,49.5
2024-01-10T14:29:21.328Z,49.8
2024-01-10T14:30:21.555Z,49.7
2024-01-10T14:31:29.386Z,49.8
2024-01-10T14:32:20.707Z,50.2
2024-01-10T14:33:20.685Z,50.3
2024-01-10T14:34:21.273Z,49.4
2024-01-10T14:35:20.797Z,49.8
2024-01-10T14:36:20.692Z,49.7
2024-01-10T14:37:20.526Z,48.9
2024-01-10T14:38:21.298Z,49
2024-01-10T14:40:21.421Z,48.6
2024-01-10T14:41:21.070Z,49.1
2024-01-10T14:42:20.516Z,49.1
2024-01-10T14:43:20.968Z,49.1
2024-01-10T14:44:21.448Z,49.4
2024-01-10T14:45:20.771Z,49.2
2024-01-10T14:46:20.920Z,49.1
2024-01-10T14:47:20.567Z,49.6
2024-01-10T14:48:19.814Z,49.4
2024-01-10T14:49:20.695Z,49
2024-01-10T14:50:20.573Z,49.1
2024-01-10T14:51:21.383Z,49.5
2024-01-10T14:52:21.261Z,49
2024-01-10T14:53:20.991Z,49.4
2024-01-10T14:54:20.977Z,49.1
2024-01-10T14:56:20.613Z,50.1
2024-01-10T14:57:20.680Z,49.5
2024-01-10T14:58:20.949Z,49.2
2024-01-10T14:59:28.975Z,49
2024-01-10T15:00:20.521Z,49.3
2024-01-10T15:01:21.202Z,48.7
2024-01-10T15:02:21.306Z,49
2024-01-10T15:03:26.494Z,49.1
2024-01-10T15:04:20.576Z,49.2
2024-01-10T15:05:21.087Z,49.1
2024-01-10T15:06:20.540Z,48.6
2024-01-10T15:07:20.582Z,49.1
2024-01-10T15:08:21.067Z,48.6
2024-01-10T15:09:20.636Z,49.4
2024-01-10T15:10:21.033Z,49.3
2024-01-10T15:11:21.032Z,49
2024-01-10T15:12:20.629Z,48.9
2024-01-10T15:13:20.626Z,48.9
2024-01-10T15:14:20.540Z,48.6
2024-01-10T15:15:20.701Z,48.5
2024-01-10T15:16:20.499Z,48.9
2024-01-10T15:17:20.733Z,49
2024-01-10T15:18:19.625Z,49.3
2024-01-10T15:19:21.237Z,49.8
2024-01-10T15:20:20.753Z,49.2
2024-01-10T15:21:20.657Z,49.8
2024-01-10T15:22:20.508Z,49.2
2024-01-10T15:24:21.743Z,49.6
2024-01-10T15:25:20.528Z,49.6
2024-01-10T15:26:20.585Z,49.7
2024-01-10T15:27:20.572Z,50.1
2024-01-10T15:28:20.509Z,49.8
2024-01-10T15:29:21.072Z,50
2024-01-10T15:30:21.520Z,49.9
2024-01-10T15:31:20.563Z,50.2
2024-01-10T15:32:20.589Z,49.7
2024-01-10T15:33:21.458Z,49.7
2024-01-10T15:34:21.024Z,50.2
2024-01-10T15:35:20.532Z,50
2024-01-10T15:36:20.501Z,49.8
2024-01-10T15:37:20.531Z,50.5
2024-01-10T15:38:21.430Z,50.8
2024-01-10T15:39:20.818Z,50.8
2024-01-10T15:40:20.579Z,50.8
2024-01-10T15:41:21.110Z,50.7
2024-01-10T15:42:20.499Z,51
2024-01-10T15:43:20.521Z,51.4
2024-01-10T15:44:21.916Z,52
2024-01-10T15:46:20.649Z,53.1
2024-01-10T15:47:21.094Z,53.1
2024-01-10T15:48:20.984Z,53.9
2024-01-10T15:49:20.859Z,52.6
2024-01-10T15:50:21.034Z,52
2024-01-10T15:52:11.018Z,52.3
2024-01-10T15:52:20.519Z,53.2
2024-01-10T15:53:23.684Z,52.6
2024-01-10T15:54:20.499Z,54.5
2024-01-10T15:55:21.472Z,53.4
2024-01-10T15:56:20.885Z,55.1
2024-01-10T15:57:34.968Z,54.4
2024-01-10T15:58:20.580Z,54
2024-01-10T15:59:20.563Z,53.4
2024-01-10T16:01:20.599Z,54.3
2024-01-10T16:02:20.587Z,54
2024-01-10T16:03:20.510Z,55.7
2024-01-10T16:04:20.505Z,55.3
2024-01-10T16:05:20.634Z,56.3
2024-01-10T16:06:20.838Z,55.9
2024-01-10T16:07:20.558Z,57.1
2024-01-10T16:08:20.561Z,58.2
2024-01-10T16:09:20.524Z,58
2024-01-10T16:10:20.597Z,57.2
2024-01-10T16:11:20.919Z,57.4
2024-01-10T16:12:20.498Z,59.2
2024-01-10T16:13:20.769Z,57.8
2024-01-10T16:14:20.577Z,59.3
2024-01-10T16:15:20.551Z,59.6
2024-01-10T16:16:20.527Z,59.3
2024-01-10T16:17:20.602Z,58.7
2024-01-10T16:18:20.597Z,59
2024-01-10T16:19:20.622Z,57.2
2024-01-10T16:20:20.537Z,58.7
2024-01-10T16:21:19.583Z,58.3
2024-01-10T16:22:20.760Z,58.1
2024-01-10T16:23:20.576Z,57.9
2024-01-10T16:24:20.510Z,57.8
2024-01-10T16:25:20.994Z,57.3
2024-01-10T16:26:21.371Z,58.4
2024-01-10T16:27:21.317Z,57.1
2024-01-10T16:28:20.543Z,56.2
2024-01-10T16:29:20.522Z,58.2
2024-01-10T16:30:20.622Z,57.2
2024-01-10T16:31:21.175Z,58.4
2024-01-10T16:32:20.612Z,59.4
2024-01-10T16:33:21.357Z,60.2
2024-01-10T16:34:21.307Z,60.3
2024-01-10T16:35:20.567Z,61
2024-01-10T16:36:20.641Z,62.2
2024-01-10T16:37:20.712Z,63.2
2024-01-10T16:38:20.967Z,63.9
2024-01-10T16:39:20.517Z,64.2
2024-01-10T16:40:20.529Z,65.2
2024-01-10T16:41:21.223Z,66
2024-01-10T16:42:20.511Z,65.9
2024-01-10T16:43:21.000Z,64.9
2024-01-10T16:44:20.524Z,65
2024-01-10T16:45:21.038Z,65.3
2024-01-10T16:46:20.966Z,65.9
2024-01-10T16:47:20.538Z,65.1
2024-01-10T16:48:19.749Z,65.3
2024-01-10T16:49:20.643Z,65.1
2024-01-10T16:50:20.542Z,65.3
2024-01-10T16:51:21.138Z,65.8
2024-01-10T16:52:20.496Z,66.5
2024-01-10T16:53:21.073Z,66.3
2024-01-10T16:54:20.851Z,66.9
2024-01-10T16:55:20.503Z,66.4
2024-01-10T16:57:20.499Z,66.1
2024-01-10T16:58:20.491Z,65.3
2024-01-10T16:59:21.423Z,66.2
2024-01-10T17:00:20.488Z,66.2
2024-01-10T17:01:20.732Z,65.9
2024-01-10T17:02:20.664Z,64.5
2024-01-10T17:03:21.418Z,64.2
2024-01-10T17:04:20.989Z,65.1
2024-01-10T17:05:21.241Z,65.8
2024-01-10T17:06:20.554Z,66.8
2024-01-10T17:07:20.992Z,66.4
2024-01-10T17:08:21.051Z,65.3
2024-01-10T17:09:21.155Z,65.3
2024-01-10T17:10:20.865Z,64.7
2024-01-10T17:11:21.249Z,64.1
2024-01-10T17:12:20.510Z,63.9
2024-01-10T17:13:20.489Z,63.5
2024-01-10T17:14:20.542Z,63.5
2024-01-10T17:15:20.490Z,63.5
2024-01-10T17:16:20.848Z,63.9
2024-01-10T17:17:20.696Z,64.5
2024-01-10T17:18:22.400Z,64.4
2024-01-10T17:19:20.951Z,65
2024-01-10T17:20:21.319Z,65.7
2024-01-10T17:21:20.500Z,65.8
2024-01-10T17:22:20.493Z,66.6
2024-01-10T17:23:20.960Z,67.7
2024-01-10T17:24:20.486Z,67.5
2024-01-10T17:25:20.534Z,68.1
2024-01-10T17:26:21.059Z,68.3
2024-01-10T17:28:20.502Z,67.5
2024-01-10T17:29:20.546Z,68.6
2024-01-10T17:30:20.571Z,69.8
2024-01-10T17:31:20.488Z,70
2024-01-10T17:32:20.665Z,69.8
2024-01-10T17:33:21.041Z,69
2024-01-10T17:34:20.562Z,68.7
2024-01-10T17:35:20.542Z,68.9
2024-01-10T17:36:20.488Z,68.3
2024-01-10T17:37:20.500Z,67.6
2024-01-10T17:39:21.170Z,67.8
2024-01-10T17:40:20.479Z,67.9
2024-01-10T17:41:20.525Z,66.9
2024-01-10T17:42:20.495Z,66.9
2024-01-10T17:43:20.485Z,66.6
2024-01-10T17:44:20.544Z,66.1
2024-01-10T17:45:20.512Z,66.4
2024-01-10T17:46:20.514Z,66.4
2024-01-10T17:47:20.603Z,67
2024-01-10T17:48:20.055Z,67
2024-01-10T17:49:21.349Z,68
2024-01-10T17:50:20.665Z,68.1
2024-01-10T17:51:20.673Z,68
2024-01-10T17:52:20.693Z,67.8
2024-01-10T17:53:21.070Z,66.1
2024-01-10T17:54:20.962Z,66.1
2024-01-10T17:55:20.918Z,67.4
2024-01-10T17:56:20.542Z,67.6
2024-01-10T17:57:20.855Z,67.4
2024-01-10T17:58:20.939Z,68.5
2024-01-10T17:59:21.098Z,68.3
2024-01-10T18:00:20.478Z,68.6
2024-01-10T18:01:23.398Z,67.6
2024-01-10T18:02:20.507Z,67.2
2024-01-10T18:03:20.720Z,67.9
2024-01-10T18:04:21.053Z,68.5
2024-01-10T18:05:21.238Z,68.6
2024-01-10T18:06:20.602Z,68.6
2024-01-10T18:07:21.303Z,69.7
2024-01-10T18:08:20.495Z,70.3
2024-01-10T18:09:21.132Z,71
2024-01-10T18:10:20.486Z,71.6
2024-01-10T18:11:20.499Z,72.6
2024-01-10T18:12:21.048Z,72.5
2024-01-10T18:13:20.474Z,72.8
2024-01-10T18:14:20.505Z,72.5
2024-01-10T18:15:21.445Z,73
2024-01-10T18:16:20.519Z,73
2024-01-10T18:17:20.550Z,73.2
2024-01-10T18:18:28.788Z,73.7
2024-01-10T18:20:20.946Z,74.2
2024-01-10T18:21:21.774Z,74.8
2024-01-10T18:22:21.084Z,75.4
2024-01-10T18:23:20.703Z,75.7
2024-01-10T18:24:20.503Z,74.6
2024-01-10T18:25:20.717Z,75.1
2024-01-10T18:26:21.254Z,74.6
2024-01-10T18:27:20.478Z,75.7
2024-01-10T18:28:21.166Z,76.4
2024-01-10T18:29:20.898Z,76.3
2024-01-10T18:30:20.542Z,76.8
2024-01-10T18:31:20.472Z,77.1
2024-01-10T18:32:20.529Z,77
2024-01-10T18:34:20.544Z,76
2024-01-10T18:35:20.478Z,76.4
2024-01-10T18:36:20.465Z,77.1
2024-01-10T18:37:21.070Z,77.6
2024-01-10T18:38:21.139Z,77.3
2024-01-10T18:39:20.507Z,77
2024-01-10T18:40:20.515Z,77.3
2024-01-10T18:41:21.181Z,77.4
2024-01-10T18:42:21.210Z,78.6
2024-01-10T18:43:21.068Z,78.5
2024-01-10T18:44:20.524Z,79.1
2024-01-10T18:45:20.520Z,79.6
2024-01-10T18:46:20.468Z,80.2
2024-01-10T18:47:22.619Z,80.7
2024-01-10T18:48:19.599Z,80.9
2024-01-10T18:49:21.007Z,81.6
2024-01-10T18:50:20.532Z,81.4
2024-01-10T18:51:19.550Z,80.8
2024-01-10T18:52:20.483Z,80.8
2024-01-10T18:53:20.672Z,80.3
2024-01-10T18:54:20.487Z,80.6
2024-01-10T18:55:22.017Z,81
2024-01-10T18:56:20.928Z,80.3